Huvudsida
METAR-TAF:

METAR-TAF

Flygplatser :

Ørlands, Norge

latitud: 63-42N, longitud: 009-36E, höjd: 0 m

Aktuellt väderrapport

Denna rapport gjordes för 38 minuter sedan, klockan 15:50 UTC
Vind 21 kt från sydost
Temperatur 2°C
Fuktighet 60%
Tryck 1012 hPa
Sikt 10 km eller mer
Inga moln under 1 500 m eller inga cumulonimbus

METAR: ENOL 161550Z 14021KT CAVOK 02/M05 Q1012 TEMPO 13022G32KT

Tid: 17:28 (16:28 UTC)

Väderprognos

Prognos gäller från 16 kl. 12 UTC till 17 kl. 12 UTC
Vind 18 kt från ost/sydost
Sikt 10 km eller mer
Inga moln under 1 500 m eller inga cumulonimbus
Temporärt
från 16 kl. 12 UTC till 16 kl. 20 UTC
Vind 20 kt från sydost i byarna ända upp till 30 kt

TAF: ENOL 1612/1712 12018KT CAVOK TEMPO 1612/1620 13020G30KT

Aktuella väderrapporter och prognoser från 4000 flygplatser (METAR- och TAF-rapporter).

De tillgängliga stationerna syns som gula och röda prickar på kartan.

För musen över prickarna för att se namnen på stationerna.

Klicka sedan för att få väderrapporter och prognoser.

För att ändra kartan: Klicka på de gröna knapparna med ett svart kors på för att zooma in; den gröna knappen med ett streck på för att zooma ut; eller på de gröna pilarna för angränsande kartor.


METAR-TAF: